Time;durP1;ratioP1;P1;durP2;ratioP2;P2;SDS_P1;SDS_P2;PMS_P1;PMS_P2;Temp;Humidity;BMP_temperature;BMP_pressure;BME280_temperature;BME280_humidity;BME280_pressure;Samples;Min_cycle;Max_cycle;Signal;HPM_P1;HPM_P2
2021/11/11 00:01:46;;;;;;;30.73;17.52;;;;;;;-0.96;90.47;98028.41;5012087;28;20045;-53
2021/11/11 00:04:16;;;;;;;33.83;17.35;;;;;;;-1.05;90.77;98032.03;5007855;28;20382;-53
2021/11/11 00:06:43;;;;;;;39.50;19.05;;;;;;;-1.00;90.83;98019.09;5023664;28;20057;-52
2021/11/11 00:09:09;;;;;;;34.47;18.45;;;;;;;-0.89;90.95;98023.28;5028001;28;20830;-53
2021/11/11 00:11:36;;;;;;;37.28;19.23;;;;;;;-0.79;90.81;98020.47;5021975;28;20642;-54
2021/11/11 00:14:03;;;;;;;32.85;17.25;;;;;;;-0.68;90.50;98022.84;5018849;28;20045;-56
2021/11/11 00:16:29;;;;;;;30.27;18.50;;;;;;;-0.57;90.05;98018.19;5021082;28;20096;-54
2021/11/11 00:18:56;;;;;;;26.35;16.42;;;;;;;-0.46;89.95;98017.03;5014401;28;20060;-53
2021/11/11 00:21:23;;;;;;;31.40;17.65;;;;;;;-0.41;89.20;98025.34;5008042;28;20046;-50
2021/11/11 00:23:49;;;;;;;28.55;16.52;;;;;;;-0.36;89.82;98024.84;5018407;28;20500;-51
2021/11/11 00:26:16;;;;;;;31.02;16.27;;;;;;;-0.36;89.08;98019.53;5021221;28;20057;-54
2021/11/11 00:28:42;;;;;;;31.02;15.75;;;;;;;-0.27;89.62;98011.41;5025049;28;20421;-51
2021/11/11 00:31:09;;;;;;;31.23;17.13;;;;;;;-0.54;87.54;98017.88;5017602;28;20814;-51
2021/11/11 00:33:36;;;;;;;28.70;14.73;;;;;;;-0.82;88.25;98012.81;5007638;28;20076;-53
2021/11/11 00:36:04;;;;;;;30.35;16.73;;;;;;;-1.19;89.29;98012.22;5013145;28;20056;-54
2021/11/11 00:38:31;;;;;;;32.63;17.17;;;;;;;-1.35;90.35;98010.34;5026484;28;20049;-51
2021/11/11 00:40:58;;;;;;;24.20;16.33;;;;;;;-1.37;90.58;98012.34;5024085;28;20038;-52
2021/11/11 00:43:24;;;;;;;32.72;16.17;;;;;;;-1.21;91.58;98014.22;5018656;28;20041;-52
2021/11/11 00:45:51;;;;;;;36.00;18.55;;;;;;;-1.11;91.34;98009.59;5013840;28;20056;-54
2021/11/11 00:48:18;;;;;;;30.13;17.23;;;;;;;-1.02;90.96;98005.13;5027102;28;20476;-54
2021/11/11 00:50:44;;;;;;;32.17;16.98;;;;;;;-1.12;90.01;98010.59;5026837;28;20558;-55
2021/11/11 00:53:11;;;;;;;33.28;17.58;;;;;;;-1.09;90.48;98007.63;5025265;28;20463;-50
2021/11/11 00:55:38;;;;;;;27.13;16.50;;;;;;;-0.98;91.34;97997.66;5043166;28;20041;-54
2021/11/11 00:58:15;;;;;;;34.97;17.58;;;;;;;-0.91;91.05;97998.69;5014871;28;20115;-53
2021/11/11 01:00:42;;;;;;;30.25;18.52;;;;;;;-0.83;91.04;97996.03;5025561;28;20526;-51
2021/11/11 01:03:11;;;;;;;29.50;17.42;;;;;;;-0.86;90.69;97993.72;5026113;28;20076;-54
2021/11/11 01:05:38;;;;;;;33.40;19.35;;;;;;;-0.93;90.14;97990.88;5025633;28;20045;-53
2021/11/11 01:08:05;;;;;;;36.35;20.13;;;;;;;-0.95;90.90;97992.03;5022842;28;20048;-51
2021/11/11 01:10:34;;;;;;;32.97;19.30;;;;;;;-1.13;90.45;97990.31;5025521;28;20045;-55
2021/11/11 01:13:01;;;;;;;37.83;19.05;;;;;;;-1.15;90.74;97992.28;5023967;28;20103;-52
2021/11/11 01:15:32;;;;;;;35.53;19.75;;;;;;;-1.14;91.00;97990.47;5025008;28;20042;-55
2021/11/11 01:18:01;;;;;;;39.78;19.48;;;;;;;-1.17;90.95;97996.94;5019268;28;20049;-53
2021/11/11 01:20:28;;;;;;;40.17;18.70;;;;;;;-1.12;90.52;97996.44;5024859;28;20107;-52
2021/11/11 01:22:57;;;;;;;36.30;20.25;;;;;;;-1.16;90.81;98003.09;5025435;28;20049;-49
2021/11/11 01:25:27;;;;;;;36.20;20.50;;;;;;;-1.15;90.69;98002.13;5019257;28;20050;-51
2021/11/11 01:27:55;;;;;;;35.78;19.17;;;;;;;-1.13;91.05;97994.78;5021111;28;20140;-54
2021/11/11 01:30:27;;;;;;;36.22;21.08;;;;;;;-1.15;90.90;98010.91;5025203;28;20076;-52
2021/11/11 01:33:02;;;;;;;27.17;17.05;;;;;;;-1.16;90.80;98003.94;5013225;28;20050;-53
2021/11/11 01:35:30;;;;;;;31.00;18.42;;;;;;;-1.14;90.77;98014.41;5014584;28;20393;-51
2021/11/11 01:37:57;;;;;;;34.20;19.27;;;;;;;-1.15;90.50;98007.44;5017022;28;20468;-50
2021/11/11 01:40:24;;;;;;;25.65;14.75;;;;;;;-1.03;90.34;97997.31;5004598;28;20042;-56
2021/11/11 01:42:55;;;;;;;29.20;16.60;;;;;;;-1.07;90.34;97994.97;5011914;28;20041;-52
2021/11/11 01:45:33;;;;;;;28.42;15.90;;;;;;;-1.06;90.54;97998.47;5025128;28;20053;-52
2021/11/11 01:48:07;;;;;;;23.42;16.15;;;;;;;-1.03;90.87;97994.66;5020602;28;20041;-54
2021/11/11 01:50:34;;;;;;;30.60;17.20;;;;;;;-1.01;91.56;97990.84;5024391;28;20060;-53
2021/11/11 01:53:01;;;;;;;32.33;17.30;;;;;;;-1.00;91.60;97987.19;5022739;28;20048;-49
2021/11/11 01:55:30;;;;;;;28.77;15.80;;;;;;;-0.85;92.01;97981.25;5024994;28;20045;-53
2021/11/11 01:58:00;;;;;;;30.67;16.52;;;;;;;-0.66;91.67;97982.78;5008692;28;20572;-54
2021/11/11 02:00:32;;;;;;;31.02;16.65;;;;;;;-0.55;90.99;97982.44;5005001;28;20050;-53
2021/11/11 02:03:02;;;;;;;27.15;15.98;;;;;;;-0.67;90.76;97978.44;5032202;28;20041;-56
2021/11/11 02:05:49;;;;;;;28.05;14.52;;;;;;;-0.69;90.23;97970.66;5026327;28;20180;-55
2021/11/11 02:08:25;;;;;;;25.63;14.30;;;;;;;-0.75;90.66;97968.63;5005329;28;20552;-53
2021/11/11 02:10:53;;;;;;;25.13;13.07;;;;;;;-0.75;90.25;97967.78;5020304;28;20136;-51
2021/11/11 02:13:21;;;;;;;25.90;13.95;;;;;;;-0.63;90.11;97960.34;5013722;28;20576;-54
2021/11/11 02:15:48;;;;;;;26.92;14.40;;;;;;;-0.58;90.27;97969.50;5019365;28;20070;-55
2021/11/11 02:18:15;;;;;;;26.20;14.40;;;;;;;-0.49;90.41;97964.97;5025746;28;20049;-53
2021/11/11 02:20:44;;;;;;;21.20;13.30;;;;;;;-0.47;90.86;97970.16;5023450;28;20050;-56
2021/11/11 02:23:20;;;;;;;24.65;14.13;;;;;;;-0.62;90.11;97965.50;5005867;28;20568;-53
2021/11/11 02:26:10;;;;;;;25.80;15.93;;;;;;;-0.81;90.37;97956.00;5007907;28;20741;-54
2021/11/11 02:28:50;;;;;;;24.55;13.95;;;;;;;-0.86;90.54;97955.63;5036554;28;20037;-56
2021/11/11 02:31:19;;;;;;;24.60;12.70;;;;;;;-0.79;90.54;97938.88;5010108;28;20080;-56
2021/11/11 02:33:56;;;;;;;23.10;14.13;;;;;;;-0.68;90.41;97943.03;5017551;28;20034;-55
2021/11/11 02:37:00;;;;;;;24.52;13.60;;;;;;;-0.65;90.89;97941.88;5004514;28;20137;-55
2021/11/11 02:39:46;;;;;;;26.80;15.48;;;;;;;-0.72;91.09;97941.72;5023990;28;20048;-54
2021/11/11 02:42:14;;;;;;;27.77;15.50;;;;;;;-0.71;90.90;97940.72;5013437;28;20070;-54
2021/11/11 02:44:42;;;;;;;25.92;16.02;;;;;;;-0.66;91.51;97942.88;5023864;28;20128;-50
2021/11/11 02:47:11;;;;;;;26.88;13.20;;;;;;;-0.56;91.52;97948.00;5023524;28;20111;-53
2021/11/11 02:49:45;;;;;;;24.50;14.45;;;;;;;-0.43;90.77;97950.19;5023788;28;20132;-51
2021/11/11 02:52:11;;;;;;;25.73;15.55;;;;;;;-0.53;90.57;97948.53;5018160;28;20049;-54
2021/11/11 02:54:40;;;;;;;23.15;13.82;;;;;;;-0.49;90.90;97945.53;5020990;28;20053;-51
2021/11/11 02:57:26;;;;;;;25.20;13.65;;;;;;;-0.49;90.44;97946.38;5020684;28;20112;-53
2021/11/11 03:00:00;;;;;;;23.48;13.95;;;;;;;-0.58;90.08;97948.22;5023674;28;20061;-52
2021/11/11 03:02:30;;;;;;;25.65;14.75;;;;;;;-0.60;90.86;97955.50;5013553;28;20115;-51
2021/11/11 03:05:00;;;;;;;26.17;14.25;;;;;;;-0.55;90.92;97955.84;5023498;28;20045;-51
2021/11/11 03:07:30;;;;;;;30.98;15.45;;;;;;;-0.48;91.15;97957.84;5016828;28;20077;-52
2021/11/11 03:09:57;;;;;;;29.27;15.45;;;;;;;-0.50;90.52;97952.69;5022734;28;20050;-52
2021/11/11 03:12:24;;;;;;;27.33;13.95;;;;;;;-0.56;90.37;97940.03;5023360;28;20057;-51
2021/11/11 03:14:54;;;;;;;27.85;16.75;;;;;;;-0.58;90.55;97942.03;5023749;28;20037;-52
2021/11/11 03:17:21;;;;;;;28.38;17.42;;;;;;;-0.54;90.37;97951.34;5018569;28;20148;-49
2021/11/11 03:19:47;;;;;;;27.02;15.35;;;;;;;-0.56;90.74;97946.19;5004476;28;20038;-53
2021/11/11 03:22:18;;;;;;;31.02;17.50;;;;;;;-0.51;90.98;97950.19;5009908;28;20053;-52
2021/11/11 03:24:49;;;;;;;25.83;16.33;;;;;;;-0.41;90.63;97950.84;5022611;28;20076;-56
2021/11/11 03:27:17;;;;;;;28.23;17.42;;;;;;;-0.40;90.22;97953.34;5008624;28;20526;-54
2021/11/11 03:29:46;;;;;;;29.08;16.83;;;;;;;-0.56;90.05;97935.56;5023223;28;20065;-55
2021/11/11 03:32:13;;;;;;;24.70;12.85;;;;;;;-0.56;nan;97953.34;5022082;28;20053;-54
2021/11/11 03:34:43;;;;;;;25.38;13.65;;;;;;;-0.49;89.53;97949.03;5021155;28;20681;-56
2021/11/11 03:37:11;;;;;;;21.75;12.55;;;;;;;-0.50;89.60;97947.38;5013450;28;20542;-55
2021/11/11 03:39:38;;;;;;;23.37;14.03;;;;;;;-0.68;89.87;97939.53;5006838;28;20683;-55
2021/11/11 03:42:08;;;;;;;25.70;14.75;;;;;;;-0.71;90.56;97938.06;5014596;28;20124;-55
2021/11/11 03:44:35;;;;;;;24.75;14.50;;;;;;;-0.67;90.41;97942.03;5014691;28;20500;-52
2021/11/11 03:47:02;;;;;;;29.05;15.57;;;;;;;-0.63;90.27;97947.84;5028021;28;20119;-53
2021/11/11 03:49:32;;;;;;;31.60;16.13;;;;;;;-0.77;90.43;97946.69;5025854;28;20053;-50
2021/11/11 03:51:59;;;;;;;32.58;15.40;;;;;;;-0.81;91.01;97948.84;5024998;28;20042;-54
2021/11/11 03:54:26;;;;;;;27.80;15.13;;;;;;;-0.83;90.81;97942.88;5022986;28;20045;-51
2021/11/11 03:56:57;;;;;;;31.55;15.00;;;;;;;-0.88;90.77;97945.19;5025834;28;20127;-51
2021/11/11 03:59:27;;;;;;;29.92;16.50;;;;;;;-0.83;90.61;97950.84;5024588;28;20046;-54
2021/11/11 04:01:55;;;;;;;33.30;17.60;;;;;;;-0.79;90.65;97954.00;5025787;28;20122;-56
2021/11/11 04:04:22;;;;;;;28.92;16.60;;;;;;;-0.84;90.04;97959.81;5025961;28;20077;-54
2021/11/11 04:06:49;;;;;;;30.67;14.95;;;;;;;-0.94;89.54;97961.78;5028038;28;20045;-49
2021/11/11 04:09:16;;;;;;;31.10;14.00;;;;;;;-1.07;90.33;97968.41;5023869;28;20103;-56
2021/11/11 04:11:43;;;;;;;30.30;16.95;;;;;;;-1.19;90.29;97972.34;5020429;28;20053;-52
2021/11/11 04:14:12;;;;;;;25.88;12.45;;;;;;;-1.18;90.04;97976.69;5026134;28;20045;-54
2021/11/11 04:16:39;;;;;;;21.30;13.40;;;;;;;-1.15;89.88;97978.19;5006106;28;20053;-54
2021/11/11 04:19:06;;;;;;;25.45;12.70;;;;;;;-1.22;90.64;97978.81;5023634;28;20046;-54
2021/11/11 04:21:34;;;;;;;23.63;12.27;;;;;;;-1.21;90.68;97967.19;5036400;28;20033;-50
2021/11/11 04:24:01;;;;;;;28.73;16.50;;;;;;;-1.20;90.58;97962.72;5037556;28;20042;-52
2021/11/11 04:26:31;;;;;;;23.05;15.10;;;;;;;-1.31;90.56;97959.38;5020986;28;20053;-55
2021/11/11 04:29:03;;;;;;;25.52;12.05;;;;;;;-1.33;90.41;97950.72;5010204;28;20042;-55
2021/11/11 04:31:36;;;;;;;23.70;12.30;;;;;;;-1.21;90.44;97961.88;5013114;28;20504;-53
2021/11/11 04:34:06;;;;;;;24.05;12.43;;;;;;;-1.19;90.54;97967.03;5026543;28;20092;-51
2021/11/11 04:47:37;;;;;;;28.45;13.00;;;;;;;-1.35;90.54;97981.09;5023978;28;20045;-54
2021/11/11 04:50:31;;;;;;;22.63;12.90;;;;;;;-1.28;90.02;97979.47;5040514;28;20084;-54
2021/11/11 05:01:19;;;;;;;19.10;12.93;;;;;;;-1.47;90.03;97977.91;5036206;28;20037;-54
2021/11/11 05:03:47;;;;;;;25.63;14.85;;;;;;;-1.62;90.75;97977.69;5006191;28;20058;-55
2021/11/11 05:06:16;;;;;;;22.70;14.02;;;;;;;-1.74;90.64;97977.94;5013875;28;20040;-56
2021/11/11 05:08:45;;;;;;;26.45;15.52;;;;;;;-1.70;91.50;97978.44;5012863;28;20067;-56
2021/11/11 05:11:13;;;;;;;25.40;14.57;;;;;;;-1.66;91.46;97985.13;5015717;28;20029;-54
2021/11/11 05:13:40;;;;;;;25.33;14.77;;;;;;;-1.34;91.91;97980.94;5023418;28;20041;-54
2021/11/11 05:16:10;;;;;;;23.23;14.43;;;;;;;-1.50;90.30;97987.03;5024839;28;20064;-54
2021/11/11 05:18:37;;;;;;;30.50;14.55;;;;;;;-1.49;90.39;97982.53;5025078;28;20045;-56
2021/11/11 05:21:06;;;;;;;24.42;14.18;;;;;;;-1.35;90.91;97986.41;5019992;28;20041;-52
2021/11/11 05:23:35;;;;;;;24.40;15.68;;;;;;;-1.33;90.99;97985.25;5005584;28;20042;-56
2021/11/11 05:26:04;;;;;;;26.13;13.60;;;;;;;-1.43;89.80;97979.25;5016977;28;20076;-56
2021/11/11 05:28:31;;;;;;;21.35;12.10;;;;;;;-1.48;90.25;97977.06;5025247;28;20049;-56
2021/11/11 05:31:02;;;;;;;27.27;15.00;;;;;;;-1.48;90.52;97986.84;5014149;28;20045;-56
2021/11/11 05:33:30;;;;;;;25.10;16.02;;;;;;;-1.56;90.43;97977.03;5025660;28;20034;-51
2021/11/11 05:35:58;;;;;;;31.30;14.35;;;;;;;-1.51;90.92;97973.91;5014184;28;20053;-56
2021/11/11 05:38:24;;;;;;;26.90;16.02;;;;;;;-1.34;91.75;97966.81;5013507;28;20046;-56
2021/11/11 05:40:51;;;;;;;28.35;15.63;;;;;;;-1.25;91.07;97965.84;5024115;28;20037;-55
2021/11/11 05:43:22;;;;;;;29.93;15.10;;;;;;;-1.19;89.86;97965.22;5024599;28;20065;-56
2021/11/11 05:45:49;;;;;;;27.17;15.48;;;;;;;-1.08;89.70;97972.06;5020671;28;20509;-56
2021/11/11 05:48:16;;;;;;;26.65;15.48;;;;;;;-0.89;88.80;97961.31;5024022;28;20041;-52
2021/11/11 05:50:43;;;;;;;24.15;13.35;;;;;;;-0.94;88.34;97964.44;5013471;28;20469;-50
2021/11/11 05:53:12;;;;;;;21.08;12.95;;;;;;;-1.02;88.59;97977.72;5006969;28;20054;-52
2021/11/11 05:55:41;;;;;;;25.92;13.20;;;;;;;-1.01;89.20;97980.22;5020041;28;20041;-53
2021/11/11 05:58:13;;;;;;;22.37;13.27;;;;;;;-1.50;88.53;97980.88;5020510;28;20042;-51
2021/11/11 06:00:40;;;;;;;23.20;13.13;;;;;;;-1.62;89.61;97983.00;5018365;28;20033;-51
2021/11/11 06:03:14;;;;;;;20.42;11.93;;;;;;;-1.54;90.51;97980.38;5020394;28;20132;-53
2021/11/11 06:05:42;;;;;;;24.33;13.52;;;;;;;-1.57;90.57;97978.88;5014634;28;20045;-55
2021/11/11 06:08:14;;;;;;;21.85;11.70;;;;;;;-1.75;90.22;97984.25;5006503;28;20140;-56
2021/11/11 06:10:40;;;;;;;20.65;12.40;;;;;;;-1.86;89.45;97990.66;5006730;28;20050;-56
2021/11/11 06:13:07;;;;;;;20.92;12.32;;;;;;;-1.86;90.14;97988.00;5004111;28;20520;-53
2021/11/11 06:15:34;;;;;;;30.65;13.75;;;;;;;-1.85;90.72;97989.66;5016073;28;20041;-56
2021/11/11 06:18:01;;;;;;;26.02;14.32;;;;;;;-1.71;91.16;97985.59;5027124;28;20053;-55
2021/11/11 06:20:31;;;;;;;27.60;13.75;;;;;;;-1.73;90.92;97989.41;5019492;28;20545;-56
2021/11/11 06:23:02;;;;;;;23.33;13.27;;;;;;;-1.68;90.81;97997.72;5030738;28;20535;-56
2021/11/11 06:25:28;;;;;;;27.25;14.13;;;;;;;-1.67;90.83;98004.69;5017225;28;20148;-52
2021/11/11 06:28:02;;;;;;;25.77;13.73;;;;;;;-1.59;90.97;97995.94;5002381;28;20049;-55
2021/11/11 06:30:29;;;;;;;27.90;12.57;;;;;;;-1.57;90.28;98008.09;5013777;28;20053;-56
2021/11/11 06:32:55;;;;;;;23.08;11.82;;;;;;;-1.44;90.39;98009.44;5018356;28;20470;-55
2021/11/11 06:35:28;;;;;;;25.38;13.52;;;;;;;-1.55;90.02;98018.53;5020798;28;20489;-55
2021/11/11 06:37:54;;;;;;;26.45;14.27;;;;;;;-1.74;89.96;98007.16;5023231;28;20523;-56
2021/11/11 06:40:21;;;;;;;22.77;13.35;;;;;;;-1.78;90.58;98007.59;5019024;28;20045;-57
2021/11/11 06:42:47;;;;;;;23.73;12.07;;;;;;;-1.66;90.80;98010.84;5021405;28;20041;-61
2021/11/11 06:45:15;;;;;;;25.60;13.25;;;;;;;-1.60;90.73;98011.06;5020572;28;20448;-61
2021/11/11 06:47:42;;;;;;;21.77;12.48;;;;;;;-1.50;89.91;98008.28;5013998;28;20485;-54
2021/11/11 06:50:11;;;;;;;24.45;13.45;;;;;;;-1.64;90.45;98016.81;5020892;28;20045;-54
2021/11/11 06:52:38;;;;;;;21.10;12.82;;;;;;;-1.52;90.11;98018.22;5021490;28;20686;-52
2021/11/11 06:55:06;;;;;;;25.00;14.55;;;;;;;-1.48;90.40;98016.06;5021201;28;20042;-53
2021/11/11 06:57:33;;;;;;;30.90;16.40;;;;;;;-1.38;90.18;98023.94;5022446;28;20049;-53
2021/11/11 07:00:10;;;;;;;26.90;13.93;;;;;;;-1.28;88.65;98023.81;5019919;28;20067;-54
2021/11/11 07:02:37;;;;;;;26.38;15.15;;;;;;;-1.26;89.01;98020.00;5027170;28;20041;-57
2021/11/11 07:05:06;;;;;;;28.63;14.65;;;;;;;-1.30;88.90;98016.00;5005402;28;20042;-56
2021/11/11 07:07:33;;;;;;;23.73;13.10;;;;;;;-1.13;88.84;98021.38;5004640;28;20073;-57
2021/11/11 07:10:00;;;;;;;21.98;12.60;;;;;;;-1.39;88.46;98033.75;5025341;28;20052;-57
2021/11/11 07:12:26;;;;;;;19.70;12.00;;;;;;;-1.38;88.33;98023.94;5025151;28;20055;-56
2021/11/11 07:14:53;;;;;;;23.42;12.85;;;;;;;-1.39;89.03;98023.13;5019396;28;20542;-56
2021/11/11 07:17:19;;;;;;;22.13;13.20;;;;;;;-1.39;89.58;98031.09;5026906;28;20055;-56
2021/11/11 07:19:46;;;;;;;25.15;13.57;;;;;;;-1.34;89.88;98030.59;5025395;28;20060;-56
2021/11/11 07:22:13;;;;;;;26.48;14.63;;;;;;;-1.19;88.67;98038.78;5026394;28;20041;-54
2021/11/11 07:24:39;;;;;;;30.45;16.45;;;;;;;-1.21;88.77;98046.91;5011245;28;20049;-55
2021/11/11 07:27:06;;;;;;;26.73;14.20;;;;;;;-1.20;89.68;98037.97;5026357;28;20049;-56
2021/11/11 07:29:33;;;;;;;32.13;16.33;;;;;;;-1.23;89.17;98042.75;5035359;28;20049;-56
2021/11/11 07:32:00;;;;;;;33.08;17.45;;;;;;;-1.23;89.71;98046.25;5019989;28;20092;-56
2021/11/11 07:34:27;;;;;;;32.83;17.42;;;;;;;-1.09;89.64;98050.16;5011736;28;20420;-56
2021/11/11 07:36:54;;;;;;;33.67;18.33;;;;;;;-0.88;90.26;98053.34;5020299;28;20052;-53
2021/11/11 07:39:22;;;;;;;33.17;17.95;;;;;;;-1.01;88.96;98054.66;5027923;28;20049;-53
2021/11/11 07:41:53;;;;;;;35.97;16.58;;;;;;;-0.88;88.77;98054.22;5008420;28;20049;-54
2021/11/11 07:44:20;;;;;;;31.02;16.70;;;;;;;-0.84;89.04;98060.03;5024855;28;20076;-54
2021/11/11 07:46:47;;;;;;;26.80;15.18;;;;;;;-0.72;88.80;98055.22;5020187;28;20042;-56
2021/11/11 07:49:13;;;;;;;29.30;16.33;;;;;;;-0.53;88.25;98057.59;5018749;28;20053;-55
2021/11/11 07:51:40;;;;;;;30.67;15.65;;;;;;;-0.51;87.97;98072.56;5024107;28;20405;-57
2021/11/11 07:54:06;;;;;;;25.70;14.95;;;;;;;-0.49;88.58;98068.75;5020885;28;20050;-55
2021/11/11 07:56:37;;;;;;;28.40;15.60;;;;;;;-0.55;89.13;98069.41;5024482;28;20052;-56
2021/11/11 07:59:05;;;;;;;26.23;15.00;;;;;;;-0.55;89.26;98069.41;5027681;28;20088;-56
2021/11/11 08:01:32;;;;;;;33.42;16.45;;;;;;;-0.38;89.17;98067.59;5020321;28;20300;-56
2021/11/11 08:04:00;;;;;;;25.08;16.05;;;;;;;-0.29;89.15;98077.25;5017704;28;20088;-53
2021/11/11 08:06:26;;;;;;;25.63;14.95;;;;;;;-0.20;88.49;98070.13;5022047;28;20527;-56
2021/11/11 08:08:54;;;;;;;29.65;15.27;;;;;;;-0.17;87.79;98074.28;5017650;28;20500;-44
2021/11/11 08:11:20;;;;;;;27.98;15.70;;;;;;;-0.06;88.31;98068.63;5020159;28;20072;-44
2021/11/11 08:13:49;;;;;;;31.58;17.33;;;;;;;-0.03;89.01;98070.94;5009583;28;20045;-44
2021/11/11 08:16:16;;;;;;;30.00;17.17;;;;;;;-0.01;87.71;98074.28;5021801;28;20049;-48
2021/11/11 08:18:43;;;;;;;31.45;16.40;;;;;;;0.14;87.66;98070.13;5023831;28;20052;-44
2021/11/11 08:21:09;;;;;;;33.97;18.05;;;;;;;0.20;87.55;98074.78;5022666;28;20057;-45
2021/11/11 08:23:36;;;;;;;29.05;18.08;;;;;;;0.26;87.20;98090.09;5019750;28;20045;-44
2021/11/11 08:26:04;;;;;;;35.38;19.33;;;;;;;0.38;87.23;98087.91;5019792;28;20054;-42
2021/11/11 08:28:32;;;;;;;37.05;18.17;;;;;;;0.54;87.18;98094.19;5018022;28;20108;-45
2021/11/11 08:30:59;;;;;;;29.27;16.30;;;;;;;0.65;87.21;98088.53;5035856;28;20045;-57
2021/11/11 08:33:26;;;;;;;26.70;17.05;;;;;;;0.78;86.52;98088.00;5017886;28;20113;-53
2021/11/11 08:35:52;;;;;;;28.35;16.02;;;;;;;0.87;86.20;98086.13;5013429;28;20584;-54
2021/11/11 08:38:20;;;;;;;25.95;16.05;;;;;;;1.02;86.31;98084.41;5014730;28;20037;-57
2021/11/11 08:40:46;;;;;;;23.13;13.30;;;;;;;1.10;85.99;98088.88;5018145;28;20044;-54
2021/11/11 08:43:13;;;;;;;26.52;15.05;;;;;;;1.24;85.91;98089.13;5017176;28;20037;-54
2021/11/11 08:45:44;;;;;;;22.83;14.38;;;;;;;1.33;86.08;98089.94;5039912;28;20069;-55
2021/11/11 08:48:11;;;;;;;26.92;14.75;;;;;;;1.51;86.27;98085.16;5007188;28;20041;-55
2021/11/11 08:50:38;;;;;;;22.70;14.55;;;;;;;1.67;86.79;98086.09;5010349;28;20571;-54
2021/11/11 08:53:07;;;;;;;36.63;17.83;;;;;;;1.87;87.69;98083.78;5007902;28;20492;-57
2021/11/11 08:55:35;;;;;;;41.03;20.80;;;;;;;2.08;86.92;98076.94;5022830;28;20042;-56
2021/11/11 08:58:04;;;;;;;28.02;16.00;;;;;;;2.29;87.69;98086.13;5016197;28;20041;-57
2021/11/11 09:00:33;;;;;;;26.50;15.02;;;;;;;2.45;86.82;98087.81;5019752;28;20049;-55
2021/11/11 09:03:02;;;;;;;27.42;15.13;;;;;;;2.61;87.23;98089.47;5025697;28;20551;-57
2021/11/11 09:05:32;;;;;;;22.42;14.82;;;;;;;2.83;86.87;98081.56;5012457;28;20184;-58
2021/11/11 09:08:00;;;;;;;24.80;15.18;;;;;;;3.15;85.73;98078.69;5026381;28;20049;-58
2021/11/11 09:10:32;;;;;;;25.35;14.13;;;;;;;3.42;84.67;98087.88;5021762;28;20519;-58
2021/11/11 09:13:03;;;;;;;24.85;14.18;;;;;;;3.61;83.56;98089.13;5022635;28;20064;-54
2021/11/11 09:15:30;;;;;;;24.05;14.07;;;;;;;3.77;82.82;98089.91;5017108;28;20046;-54
2021/11/11 09:17:59;;;;;;;26.88;14.85;;;;;;;3.85;82.52;98089.78;5016519;28;20435;-54
2021/11/11 09:20:26;;;;;;;26.13;15.07;;;;;;;3.94;82.80;98090.47;5019657;28;20050;-59
2021/11/11 09:22:55;;;;;;;24.88;15.35;;;;;;;3.99;82.78;98085.41;5017807;28;20044;-55
2021/11/11 09:25:27;;;;;;;23.17;14.20;;;;;;;4.14;81.31;98079.13;5013469;28;20056;-54
2021/11/11 09:27:55;;;;;;;23.13;14.02;;;;;;;4.21;81.12;98082.69;5020848;28;20048;-54
2021/11/11 09:30:25;;;;;;;22.65;13.00;;;;;;;4.24;80.85;98089.53;5036304;28;20056;-51
2021/11/11 09:32:52;;;;;;;20.27;13.13;;;;;;;4.23;81.45;98086.00;5010202;28;20045;-57
2021/11/11 09:35:19;;;;;;;21.15;13.00;;;;;;;4.31;81.86;98089.59;5019129;28;20056;-54
2021/11/11 09:37:46;;;;;;;19.42;11.73;;;;;;;4.27;80.57;98091.78;5022625;28;20045;-62
2021/11/11 09:40:18;;;;;;;17.65;11.45;;;;;;;4.16;80.39;98095.84;5025560;28;20044;-57
2021/11/11 09:42:46;;;;;;;19.90;11.98;;;;;;;4.15;80.63;98102.22;5022043;28;20083;-55
2021/11/11 09:45:20;;;;;;;18.85;11.38;;;;;;;4.21;81.08;98106.81;5023003;28;20076;-56
2021/11/11 09:47:48;;;;;;;20.15;11.63;;;;;;;4.19;80.84;98111.53;5009418;28;20042;-57
2021/11/11 09:50:15;;;;;;;21.13;11.75;;;;;;;4.24;79.77;98109.09;5021029;28;20064;-59
2021/11/11 09:52:42;;;;;;;20.73;12.00;;;;;;;4.25;80.08;98110.78;5013968;28;20044;-59
2021/11/11 10:00:47;;;;;;;22.20;12.93;;;;;;;4.35;80.57;98101.56;5025353;28;20057;-57
2021/11/11 10:03:15;;;;;;;20.95;14.35;;;;;;;4.35;79.84;98098.91;5024912;28;20049;-56
2021/11/11 10:05:42;;;;;;;21.23;13.23;;;;;;;4.35;79.99;98098.91;5025320;28;20049;-56
2021/11/11 10:08:30;;;;;;;25.73;15.38;;;;;;;4.44;80.21;98095.03;5025552;28;20042;-56
2021/11/11 10:10:56;;;;;;;23.58;13.85;;;;;;;4.55;79.49;98094.53;5006863;28;20046;-57
2021/11/11 10:13:25;;;;;;;25.17;14.85;;;;;;;4.63;79.58;98098.06;5020008;28;20048;-59
2021/11/11 10:16:15;;;;;;;23.27;13.27;;;;;;;4.69;79.73;98098.09;5023464;28;20074;-52
2021/11/11 10:18:47;;;;;;;25.10;14.10;;;;;;;4.80;79.64;98102.09;5025625;28;20147;-57
2021/11/11 10:21:31;;;;;;;25.23;14.30;;;;;;;4.86;79.75;98105.03;5022095;28;20049;-56
2021/11/11 10:24:13;;;;;;;27.00;14.25;;;;;;;4.95;79.52;98106.53;5023072;28;20041;-53
2021/11/11 10:26:44;;;;;;;22.05;14.38;;;;;;;5.07;79.72;98101.44;5015378;28;20159;-53
2021/11/11 10:29:36;;;;;;;25.77;15.23;;;;;;;5.11;79.56;98094.66;5015844;28;20099;-51
2021/11/11 10:32:14;;;;;;;25.27;15.20;;;;;;;5.24;78.67;98096.59;5014518;28;20034;-50
2021/11/11 10:34:48;;;;;;;22.73;14.73;;;;;;;5.29;77.49;98093.28;5017464;28;20043;-52
2021/11/11 10:37:15;;;;;;;18.38;13.75;;;;;;;5.44;77.88;98101.19;5013527;28;20049;-54
2021/11/11 10:39:56;;;;;;;22.02;14.63;;;;;;;5.50;78.01;98095.03;5020038;28;20041;-56
2021/11/11 10:42:25;;;;;;;;;;;;;;;5.57;77.72;98081.63;5019023;28;20099;-53
2021/11/11 10:44:56;;;;;;;22.92;13.45;;;;;;;5.63;77.04;98082.69;5017538;28;19928;-56
2021/11/11 10:47:31;;;;;;;27.40;15.83;;;;;;;5.57;77.64;98082.44;5022073;28;20045;-54
2021/11/11 10:50:00;;;;;;;25.55;16.67;;;;;;;5.66;77.12;98088.47;5027150;28;20041;-56
2021/11/11 10:52:36;;;;;;;24.42;16.17;;;;;;;5.72;77.36;98084.16;5020045;28;20042;-56
2021/11/11 10:55:09;;;;;;;29.40;16.25;;;;;;;5.77;76.84;98089.72;5026653;28;20041;-56
2021/11/11 10:57:51;;;;;;;27.58;18.33;;;;;;;5.81;76.88;98092.84;5026808;28;20075;-56
2021/11/11 11:00:30;;;;;;;24.88;16.45;;;;;;;5.86;77.07;98095.72;5025417;28;20049;-54
2021/11/11 11:03:07;;;;;;;24.45;15.40;;;;;;;5.92;76.88;98103.00;5024778;28;20542;-55
2021/11/11 11:05:42;;;;;;;22.00;15.32;;;;;;;6.06;76.62;98105.72;5019375;28;20065;-54
2021/11/11 11:08:13;;;;;;;24.67;16.17;;;;;;;6.04;76.52;98099.75;5020755;28;20045;-55
2021/11/11 11:10:46;;;;;;;27.13;17.27;;;;;;;6.03;76.25;98100.72;5027581;28;20061;-53
2021/11/11 11:13:24;;;;;;;26.00;15.43;;;;;;;6.11;76.25;98097.88;5022317;28;20044;-52
2021/11/11 11:15:59;;;;;;;22.45;14.93;;;;;;;6.12;76.10;98091.50;5020434;28;20041;-53
2021/11/11 11:18:30;;;;;;;24.50;14.85;;;;;;;6.14;76.17;98085.88;5025018;28;20056;-53
2021/11/11 11:21:01;;;;;;;23.00;15.03;;;;;;;6.06;76.45;98084.22;5027257;28;20060;-50
2021/11/11 11:23:34;;;;;;;21.45;13.80;;;;;;;5.99;76.60;98082.34;5026881;28;20300;-54
2021/11/11 11:26:22;;;;;;;20.48;13.38;;;;;;;5.86;77.12;98075.06;5015628;28;20474;-54
2021/11/11 11:29:10;;;;;;;23.05;14.80;;;;;;;5.85;77.57;98075.28;5020023;28;20069;-58
2021/11/11 11:32:07;;;;;;;19.63;12.95;;;;;;;5.96;77.09;98068.47;5024159;28;20115;-56
2021/11/11 11:34:39;;;;;;;22.67;13.50;;;;;;;6.06;76.57;98076.16;5024892;28;20041;-55
2021/11/11 11:37:15;;;;;;;23.25;14.13;;;;;;;6.02;76.23;98072.19;5021862;28;20041;-56
2021/11/11 11:39:48;;;;;;;19.35;13.00;;;;;;;5.96;76.43;98077.38;5018190;28;20405;-55
2021/11/11 11:42:18;;;;;;;19.08;11.48;;;;;;;5.71;77.05;98077.09;5020956;28;20037;-58
2021/11/11 11:44:48;;;;;;;19.33;12.40;;;;;;;5.59;77.70;98069.63;5011203;28;20452;-56
2021/11/11 11:47:24;;;;;;;22.90;15.32;;;;;;;5.40;78.50;98079.28;5018145;28;20041;-57
2021/11/11 11:49:57;;;;;;;22.45;13.13;;;;;;;5.36;78.84;98071.81;5022294;28;20052;-57
2021/11/11 11:52:26;;;;;;;25.85;14.77;;;;;;;5.41;78.59;98067.50;5012870;28;20045;-58
2021/11/11 11:55:00;;;;;;;20.80;13.55;;;;;;;5.33;78.67;98071.22;5026200;28;20048;-58
2021/11/11 11:57:43;;;;;;;18.52;13.30;;;;;;;5.31;78.62;98075.94;5025870;28;20045;-59